Carteret, France

7:44 AM CEST on September 25, 2016 (GMT +0200)
Avenue de Saint-Jean | | Change Station

Elev 13 ft 49.36 °N, 1.76 °W | Updated 8 minutes ago

Overcast
Overcast
61.7 °F
Feels Like 61.7 °F
N
3.1
Wind Variable Wind from West
Gusts 9.3 mph

Today
High -- | Low -- °F
--% Chance of Precip.
Yesterday
High -- | Low -- °F
Precip. -- in
Pressure 29.92 in
Visibility 6.2 miles
Clouds Few 1000 ft
Overcast 14000 ft
Dew Point 57 °F
Humidity 85%
Rainfall 0.03 in
Snow Depth Not available.
7:58 AM 7:58 PM
Waning Crescent, 31% visible
METAR LFRC 250530Z AUTO 25009KT 9999 FEW010 OVC140 14/13 Q1013 TEMPO 26015G25KT SHRA
Pressure 29.92 in
Visibility 6.2 miles
Clouds Few 1000 ft
Overcast 14000 ft
Dew Point 57 °F
Humidity 85%
Rainfall 0.03 in
Snow Depth Not available.
7:58 AM 7:58 PM
Waning Crescent, 31% visible
METAR LFRC 250530Z AUTO 25009KT 9999 FEW010 OVC140 14/13 Q1013 TEMPO 26015G25KT SHRA

10-Day Weather Forecast

×

Almanac

Astronomy

Sep. 25, 2016 Rise Set
Actual Time
Civil Twilight
Nautical Twilight
Astronomical Twilight
Moon
Length of Visible Light
Length of Day
Tomorrow will be .
, % of the Moon is Illuminated

Today's Extremes

Country Highs Country Lows

Community

WunderPhotos

Upload Photos

1,941,554 photos uploaded!

WunderBlog® & News

Nearby

Air Quality

  Air Quality AQ Index Pollutant
Not available.

Snow Depth

Station Depth Elevation

Earthquake Activity

City Distance Mag. Time & Date
Minimum magnitude displayed is 2.5.

Coastal Water Temperatures

Place Temperature

Stations

Nearby Weather Stations

Station Location Temp. Windchill Dew Point Humidity Wind Precip. Elev Updated Type